sensor_id;sensor_type;location;lat;lon;timestamp;temperature;humidity
16838;DHT22;19510;54.486;9.046;2022-10-15T00:01:40;14.20;99.90
16838;DHT22;19510;54.486;9.046;2022-10-15T00:04:06;14.30;99.90
16838;DHT22;19510;54.486;9.046;2022-10-15T00:06:32;14.20;99.90
16838;DHT22;19510;54.486;9.046;2022-10-15T00:08:57;14.20;99.90
16838;DHT22;19510;54.486;9.046;2022-10-15T00:11:25;14.20;99.90
16838;DHT22;19510;54.486;9.046;2022-10-15T00:13:53;14.30;99.90
16838;DHT22;19510;54.486;9.046;2022-10-15T00:16:21;14.20;99.90
16838;DHT22;19510;54.486;9.046;2022-10-15T00:18:48;14.20;99.90
16838;DHT22;19510;54.486;9.046;2022-10-15T00:21:15;14.20;99.90
16838;DHT22;19510;54.486;9.046;2022-10-15T00:23:43;14.20;99.90
16838;DHT22;19510;54.486;9.046;2022-10-15T00:26:13;14.20;99.90
16838;DHT22;19510;54.486;9.046;2022-10-15T00:28:39;14.20;99.90
16838;DHT22;19510;54.486;9.046;2022-10-15T00:31:07;14.20;99.90
16838;DHT22;19510;54.486;9.046;2022-10-15T00:33:33;14.10;99.90
16838;DHT22;19510;54.486;9.046;2022-10-15T00:36:01;14.20;99.90
16838;DHT22;19510;54.486;9.046;2022-10-15T00:38:27;14.20;99.90
16838;DHT22;19510;54.486;9.046;2022-10-15T00:40:53;14.20;99.90
16838;DHT22;19510;54.486;9.046;2022-10-15T00:43:40;14.20;99.90
16838;DHT22;19510;54.486;9.046;2022-10-15T00:46:57;14.20;99.90
16838;DHT22;19510;54.486;9.046;2022-10-15T00:49:22;14.30;99.90
16838;DHT22;19510;54.486;9.046;2022-10-15T00:51:51;14.20;99.90
16838;DHT22;19510;54.486;9.046;2022-10-15T00:54:18;14.10;99.90
16838;DHT22;19510;54.486;9.046;2022-10-15T00:56:45;14.20;99.90
16838;DHT22;19510;54.486;9.046;2022-10-15T00:59:11;14.30;99.90
16838;DHT22;19510;54.486;9.046;2022-10-15T01:01:38;14.20;99.90
16838;DHT22;19510;54.486;9.046;2022-10-15T01:04:05;14.10;99.90
16838;DHT22;19510;54.486;9.046;2022-10-15T01:06:31;14.10;99.90
16838;DHT22;19510;54.486;9.046;2022-10-15T01:08:57;14.10;99.90
16838;DHT22;19510;54.486;9.046;2022-10-15T01:11:37;14.20;99.90
16838;DHT22;19510;54.486;9.046;2022-10-15T01:17:23;14.10;99.90
16838;DHT22;19510;54.486;9.046;2022-10-15T01:28:36;14.10;99.90
16838;DHT22;19510;54.486;9.046;2022-10-15T01:31:32;14.20;99.90
16838;DHT22;19510;54.486;9.046;2022-10-15T01:34:05;14.10;99.90
16838;DHT22;19510;54.486;9.046;2022-10-15T01:36:43;14.10;99.90
16838;DHT22;19510;54.486;9.046;2022-10-15T01:39:13;14.10;99.90
16838;DHT22;19510;54.486;9.046;2022-10-15T01:41:46;14.20;99.90
16838;DHT22;19510;54.486;9.046;2022-10-15T01:44:20;14.10;99.90
16838;DHT22;19510;54.486;9.046;2022-10-15T01:47:03;14.10;99.90
16838;DHT22;19510;54.486;9.046;2022-10-15T01:49:36;14.10;99.90
16838;DHT22;19510;54.486;9.046;2022-10-15T01:52:08;14.00;99.90
16838;DHT22;19510;54.486;9.046;2022-10-15T01:54:35;14.00;99.90
16838;DHT22;19510;54.486;9.046;2022-10-15T01:57:02;14.00;99.90
16838;DHT22;19510;54.486;9.046;2022-10-15T01:59:30;14.00;99.90
16838;DHT22;19510;54.486;9.046;2022-10-15T02:01:57;13.90;99.90
16838;DHT22;19510;54.486;9.046;2022-10-15T02:04:25;13.90;99.90
16838;DHT22;19510;54.486;9.046;2022-10-15T02:07:14;13.90;99.90
16838;DHT22;19510;54.486;9.046;2022-10-15T02:09:54;13.90;99.90
16838;DHT22;19510;54.486;9.046;2022-10-15T02:20:23;13.60;99.90
16838;DHT22;19510;54.486;9.046;2022-10-15T02:23:00;13.70;99.90
16838;DHT22;19510;54.486;9.046;2022-10-15T02:25:28;13.70;99.90
16838;DHT22;19510;54.486;9.046;2022-10-15T02:27:56;13.70;99.90
16838;DHT22;19510;54.486;9.046;2022-10-15T02:30:23;13.60;99.90
16838;DHT22;19510;54.486;9.046;2022-10-15T02:32:52;13.60;99.90
16838;DHT22;19510;54.486;9.046;2022-10-15T02:35:20;13.70;99.90
16838;DHT22;19510;54.486;9.046;2022-10-15T02:37:49;13.50;99.90
16838;DHT22;19510;54.486;9.046;2022-10-15T02:40:16;13.50;99.90
16838;DHT22;19510;54.486;9.046;2022-10-15T02:42:42;13.50;99.90
16838;DHT22;19510;54.486;9.046;2022-10-15T02:45:08;13.50;99.90
16838;DHT22;19510;54.486;9.046;2022-10-15T02:47:34;13.50;99.90
16838;DHT22;19510;54.486;9.046;2022-10-15T02:49:59;13.40;99.90
16838;DHT22;19510;54.486;9.046;2022-10-15T02:52:25;13.50;99.90
16838;DHT22;19510;54.486;9.046;2022-10-15T02:54:50;13.40;99.90
16838;DHT22;19510;54.486;9.046;2022-10-15T02:57:16;13.40;99.90
16838;DHT22;19510;54.486;9.046;2022-10-15T02:59:42;13.50;99.90
16838;DHT22;19510;54.486;9.046;2022-10-15T03:02:07;13.30;99.90
16838;DHT22;19510;54.486;9.046;2022-10-15T03:04:33;13.30;99.90
16838;DHT22;19510;54.486;9.046;2022-10-15T03:06:59;13.30;99.90
16838;DHT22;19510;54.486;9.046;2022-10-15T03:09:24;13.30;99.90
16838;DHT22;19510;54.486;9.046;2022-10-15T03:11:50;13.30;99.90
16838;DHT22;19510;54.486;9.046;2022-10-15T03:14:15;13.30;99.90
16838;DHT22;19510;54.486;9.046;2022-10-15T03:16:41;13.20;99.90
16838;DHT22;19510;54.486;9.046;2022-10-15T03:19:07;13.20;99.90
16838;DHT22;19510;54.486;9.046;2022-10-15T03:21:32;13.10;99.90
16838;DHT22;19510;54.486;9.046;2022-10-15T03:23:58;13.30;99.90
16838;DHT22;19510;54.486;9.046;2022-10-15T03:26:24;13.10;99.90
16838;DHT22;19510;54.486;9.046;2022-10-15T03:28:49;13.10;99.90
16838;DHT22;19510;54.486;9.046;2022-10-15T03:31:15;13.10;99.90
16838;DHT22;19510;54.486;9.046;2022-10-15T03:33:41;13.10;99.90
16838;DHT22;19510;54.486;9.046;2022-10-15T03:36:07;13.00;99.90
16838;DHT22;19510;54.486;9.046;2022-10-15T03:38:33;13.00;99.90
16838;DHT22;19510;54.486;9.046;2022-10-15T03:40:59;13.10;99.90
16838;DHT22;19510;54.486;9.046;2022-10-15T03:43:24;13.00;99.90
16838;DHT22;19510;54.486;9.046;2022-10-15T03:45:51;13.10;99.90
16838;DHT22;19510;54.486;9.046;2022-10-15T03:48:17;13.00;99.90
16838;DHT22;19510;54.486;9.046;2022-10-15T03:50:44;13.00;99.90
16838;DHT22;19510;54.486;9.046;2022-10-15T03:53:09;13.00;99.90
16838;DHT22;19510;54.486;9.046;2022-10-15T03:55:35;13.00;99.90
16838;DHT22;19510;54.486;9.046;2022-10-15T03:58:01;13.00;99.90
16838;DHT22;19510;54.486;9.046;2022-10-15T04:00:27;12.90;99.90
16838;DHT22;19510;54.486;9.046;2022-10-15T04:02:53;13.00;99.90
16838;DHT22;19510;54.486;9.046;2022-10-15T04:05:18;12.90;99.90
16838;DHT22;19510;54.486;9.046;2022-10-15T04:07:44;13.00;99.90
16838;DHT22;19510;54.486;9.046;2022-10-15T04:10:10;13.00;99.90
16838;DHT22;19510;54.486;9.046;2022-10-15T04:12:35;13.00;99.90
16838;DHT22;19510;54.486;9.046;2022-10-15T04:15:01;13.00;99.90
16838;DHT22;19510;54.486;9.046;2022-10-15T04:17:26;13.00;99.90
16838;DHT22;19510;54.486;9.046;2022-10-15T04:19:52;13.00;99.90
16838;DHT22;19510;54.486;9.046;2022-10-15T04:22:18;13.00;99.90
16838;DHT22;19510;54.486;9.046;2022-10-15T04:24:43;13.10;99.90
16838;DHT22;19510;54.486;9.046;2022-10-15T04:27:10;13.00;99.90
16838;DHT22;19510;54.486;9.046;2022-10-15T04:29:36;13.10;99.90
16838;DHT22;19510;54.486;9.046;2022-10-15T04:32:02;13.10;99.90
16838;DHT22;19510;54.486;9.046;2022-10-15T04:34:28;13.10;99.90
16838;DHT22;19510;54.486;9.046;2022-10-15T04:36:53;13.20;99.90
16838;DHT22;19510;54.486;9.046;2022-10-15T04:39:20;13.10;99.90
16838;DHT22;19510;54.486;9.046;2022-10-15T04:41:45;13.20;99.90
16838;DHT22;19510;54.486;9.046;2022-10-15T04:44:11;13.10;99.90
16838;DHT22;19510;54.486;9.046;2022-10-15T04:46:37;13.20;99.90
16838;DHT22;19510;54.486;9.046;2022-10-15T04:49:03;13.30;99.90
16838;DHT22;19510;54.486;9.046;2022-10-15T04:51:28;13.20;99.90
16838;DHT22;19510;54.486;9.046;2022-10-15T04:53:54;13.30;99.90
16838;DHT22;19510;54.486;9.046;2022-10-15T04:56:21;13.30;99.90
16838;DHT22;19510;54.486;9.046;2022-10-15T04:58:47;13.20;99.90
16838;DHT22;19510;54.486;9.046;2022-10-15T05:01:16;13.30;99.90
16838;DHT22;19510;54.486;9.046;2022-10-15T05:03:44;13.30;99.90
16838;DHT22;19510;54.486;9.046;2022-10-15T05:06:13;13.40;99.90
16838;DHT22;19510;54.486;9.046;2022-10-15T05:08:40;13.40;99.90
16838;DHT22;19510;54.486;9.046;2022-10-15T05:11:11;13.40;99.90
16838;DHT22;19510;54.486;9.046;2022-10-15T05:13:37;13.40;99.90
16838;DHT22;19510;54.486;9.046;2022-10-15T05:18:38;13.40;99.90
16838;DHT22;19510;54.486;9.046;2022-10-15T05:21:04;13.30;99.90
16838;DHT22;19510;54.486;9.046;2022-10-15T05:23:30;13.40;99.90
16838;DHT22;19510;54.486;9.046;2022-10-15T05:26:06;13.40;99.90
16838;DHT22;19510;54.486;9.046;2022-10-15T05:28:33;13.50;99.90
16838;DHT22;19510;54.486;9.046;2022-10-15T05:31:05;13.40;99.90
16838;DHT22;19510;54.486;9.046;2022-10-15T05:33:32;13.40;99.90
16838;DHT22;19510;54.486;9.046;2022-10-15T05:36:07;13.40;99.90
16838;DHT22;19510;54.486;9.046;2022-10-15T05:38:33;13.50;99.90
16838;DHT22;19510;54.486;9.046;2022-10-15T05:40:59;13.40;99.90
16838;DHT22;19510;54.486;9.046;2022-10-15T05:43:25;13.40;99.90
16838;DHT22;19510;54.486;9.046;2022-10-15T05:45:54;13.40;99.90
16838;DHT22;19510;54.486;9.046;2022-10-15T05:48:20;13.50;99.90
16838;DHT22;19510;54.486;9.046;2022-10-15T05:50:46;13.40;99.90
16838;DHT22;19510;54.486;9.046;2022-10-15T05:53:11;13.40;99.90
16838;DHT22;19510;54.486;9.046;2022-10-15T05:55:37;13.40;99.90
16838;DHT22;19510;54.486;9.046;2022-10-15T05:58:03;13.40;99.90
16838;DHT22;19510;54.486;9.046;2022-10-15T06:00:29;13.40;99.90
16838;DHT22;19510;54.486;9.046;2022-10-15T06:02:54;13.50;99.90
16838;DHT22;19510;54.486;9.046;2022-10-15T06:05:20;13.40;99.90
16838;DHT22;19510;54.486;9.046;2022-10-15T06:07:45;13.50;99.90
16838;DHT22;19510;54.486;9.046;2022-10-15T06:10:11;13.40;99.90
16838;DHT22;19510;54.486;9.046;2022-10-15T06:12:37;13.50;99.90
16838;DHT22;19510;54.486;9.046;2022-10-15T06:15:04;13.40;99.90
16838;DHT22;19510;54.486;9.046;2022-10-15T06:17:30;13.50;99.90
16838;DHT22;19510;54.486;9.046;2022-10-15T06:19:56;13.50;99.90
16838;DHT22;19510;54.486;9.046;2022-10-15T06:22:21;13.50;99.90
16838;DHT22;19510;54.486;9.046;2022-10-15T06:24:47;13.50;99.90
16838;DHT22;19510;54.486;9.046;2022-10-15T06:27:13;13.50;99.90
16838;DHT22;19510;54.486;9.046;2022-10-15T06:29:39;13.50;99.90
16838;DHT22;19510;54.486;9.046;2022-10-15T06:32:09;13.50;99.90
16838;DHT22;19510;54.486;9.046;2022-10-15T06:34:34;13.50;99.90
16838;DHT22;19510;54.486;9.046;2022-10-15T06:37:00;13.60;99.90
16838;DHT22;19510;54.486;9.046;2022-10-15T06:39:25;13.60;99.90
16838;DHT22;19510;54.486;9.046;2022-10-15T06:41:51;13.60;99.90
16838;DHT22;19510;54.486;9.046;2022-10-15T06:44:17;13.60;99.90
16838;DHT22;19510;54.486;9.046;2022-10-15T06:46:42;13.60;99.90
16838;DHT22;19510;54.486;9.046;2022-10-15T06:49:08;13.60;99.90
16838;DHT22;19510;54.486;9.046;2022-10-15T06:51:34;13.60;99.90
16838;DHT22;19510;54.486;9.046;2022-10-15T06:54:02;13.50;99.90
16838;DHT22;19510;54.486;9.046;2022-10-15T06:56:27;13.60;99.90
16838;DHT22;19510;54.486;9.046;2022-10-15T06:58:53;13.50;99.90
16838;DHT22;19510;54.486;9.046;2022-10-15T07:01:19;13.60;99.90
16838;DHT22;19510;54.486;9.046;2022-10-15T07:03:48;13.60;99.90
16838;DHT22;19510;54.486;9.046;2022-10-15T07:06:14;13.60;99.90
16838;DHT22;19510;54.486;9.046;2022-10-15T07:08:39;13.60;99.90
16838;DHT22;19510;54.486;9.046;2022-10-15T07:11:07;13.60;99.90
16838;DHT22;19510;54.486;9.046;2022-10-15T07:13:34;13.70;99.90
16838;DHT22;19510;54.486;9.046;2022-10-15T07:16:04;13.70;99.90
16838;DHT22;19510;54.486;9.046;2022-10-15T07:18:30;13.70;99.90
16838;DHT22;19510;54.486;9.046;2022-10-15T07:20:56;13.70;99.90
16838;DHT22;19510;54.486;9.046;2022-10-15T07:23:22;13.70;99.90
16838;DHT22;19510;54.486;9.046;2022-10-15T07:25:47;13.70;99.90
16838;DHT22;19510;54.486;9.046;2022-10-15T07:28:13;13.70;99.90
16838;DHT22;19510;54.486;9.046;2022-10-15T07:30:38;13.70;99.90
16838;DHT22;19510;54.486;9.046;2022-10-15T07:33:05;13.80;99.90
16838;DHT22;19510;54.486;9.046;2022-10-15T07:35:30;13.80;99.90
16838;DHT22;19510;54.486;9.046;2022-10-15T07:37:59;13.80;99.90
16838;DHT22;19510;54.486;9.046;2022-10-15T07:40:26;13.80;99.90
16838;DHT22;19510;54.486;9.046;2022-10-15T07:42:53;13.80;99.90
16838;DHT22;19510;54.486;9.046;2022-10-15T07:45:18;13.80;99.90
16838;DHT22;19510;54.486;9.046;2022-10-15T07:47:44;13.90;99.90
16838;DHT22;19510;54.486;9.046;2022-10-15T07:50:10;13.90;99.90
16838;DHT22;19510;54.486;9.046;2022-10-15T07:52:35;13.80;99.90
16838;DHT22;19510;54.486;9.046;2022-10-15T07:55:01;13.90;99.90
16838;DHT22;19510;54.486;9.046;2022-10-15T07:57:27;13.90;99.90
16838;DHT22;19510;54.486;9.046;2022-10-15T07:59:52;13.90;99.90
16838;DHT22;19510;54.486;9.046;2022-10-15T08:02:18;13.90;99.90
16838;DHT22;19510;54.486;9.046;2022-10-15T08:04:45;13.90;99.90
16838;DHT22;19510;54.486;9.046;2022-10-15T08:07:11;13.90;99.90
16838;DHT22;19510;54.486;9.046;2022-10-15T08:09:37;13.90;99.90
16838;DHT22;19510;54.486;9.046;2022-10-15T08:12:03;13.90;99.90
16838;DHT22;19510;54.486;9.046;2022-10-15T08:14:30;14.00;99.90
16838;DHT22;19510;54.486;9.046;2022-10-15T08:16:56;13.90;99.90
16838;DHT22;19510;54.486;9.046;2022-10-15T08:19:25;14.00;99.90
16838;DHT22;19510;54.486;9.046;2022-10-15T08:21:50;14.00;99.90
16838;DHT22;19510;54.486;9.046;2022-10-15T08:24:16;13.90;99.90
16838;DHT22;19510;54.486;9.046;2022-10-15T08:26:45;13.90;99.90
16838;DHT22;19510;54.486;9.046;2022-10-15T08:29:11;14.00;99.90
16838;DHT22;19510;54.486;9.046;2022-10-15T08:31:38;14.00;99.90
16838;DHT22;19510;54.486;9.046;2022-10-15T08:34:04;13.90;99.90
16838;DHT22;19510;54.486;9.046;2022-10-15T08:36:30;14.00;99.90
16838;DHT22;19510;54.486;9.046;2022-10-15T08:38:56;14.00;99.90
16838;DHT22;19510;54.486;9.046;2022-10-15T08:43:54;13.90;99.90
16838;DHT22;19510;54.486;9.046;2022-10-15T08:46:35;13.90;99.90
16838;DHT22;19510;54.486;9.046;2022-10-15T08:49:03;14.00;99.90
16838;DHT22;19510;54.486;9.046;2022-10-15T08:51:44;14.00;99.90
16838;DHT22;19510;54.486;9.046;2022-10-15T08:54:17;14.00;99.90
16838;DHT22;19510;54.486;9.046;2022-10-15T08:56:46;14.00;99.90
16838;DHT22;19510;54.486;9.046;2022-10-15T08:59:39;14.00;99.90
16838;DHT22;19510;54.486;9.046;2022-10-15T09:02:22;14.00;99.90
16838;DHT22;19510;54.486;9.046;2022-10-15T09:05:17;14.10;99.90
16838;DHT22;19510;54.486;9.046;2022-10-15T09:08:07;14.00;99.90
16838;DHT22;19510;54.486;9.046;2022-10-15T09:10:44;14.00;99.90
16838;DHT22;19510;54.486;9.046;2022-10-15T09:13:41;14.00;99.90
16838;DHT22;19510;54.486;9.046;2022-10-15T09:16:27;14.10;99.90
16838;DHT22;19510;54.486;9.046;2022-10-15T09:18:54;14.00;99.90
16838;DHT22;19510;54.486;9.046;2022-10-15T09:21:23;14.00;99.90
16838;DHT22;19510;54.486;9.046;2022-10-15T09:23:51;14.10;99.90
16838;DHT22;19510;54.486;9.046;2022-10-15T09:29:12;14.10;99.90
16838;DHT22;19510;54.486;9.046;2022-10-15T09:31:53;14.00;99.90
16838;DHT22;19510;54.486;9.046;2022-10-15T09:34:38;14.00;99.90
16838;DHT22;19510;54.486;9.046;2022-10-15T09:38:22;14.00;99.90
16838;DHT22;19510;54.486;9.046;2022-10-15T09:40:38;14.00;99.90
16838;DHT22;19510;54.486;9.046;2022-10-15T09:43:06;14.00;99.90
16838;DHT22;19510;54.486;9.046;2022-10-15T09:45:33;14.00;99.90
16838;DHT22;19510;54.486;9.046;2022-10-15T09:48:00;14.00;99.90
16838;DHT22;19510;54.486;9.046;2022-10-15T09:50:40;14.10;99.90
16838;DHT22;19510;54.486;9.046;2022-10-15T09:55:48;14.10;99.90
16838;DHT22;19510;54.486;9.046;2022-10-15T09:58:19;14.10;99.90
16838;DHT22;19510;54.486;9.046;2022-10-15T10:03:20;14.10;99.90
16838;DHT22;19510;54.486;9.046;2022-10-15T10:05:46;14.10;99.90
16838;DHT22;19510;54.486;9.046;2022-10-15T10:08:24;14.10;99.90
16838;DHT22;19510;54.486;9.046;2022-10-15T10:10:56;14.20;99.90
16838;DHT22;19510;54.486;9.046;2022-10-15T10:13:33;14.00;99.90
16838;DHT22;19510;54.486;9.046;2022-10-15T10:16:12;14.20;99.90
16838;DHT22;19510;54.486;9.046;2022-10-15T10:18:38;14.20;99.90
16838;DHT22;19510;54.486;9.046;2022-10-15T10:21:07;14.20;99.90
16838;DHT22;19510;54.486;9.046;2022-10-15T10:23:44;14.20;99.90
16838;DHT22;19510;54.486;9.046;2022-10-15T10:26:10;14.30;99.90
16838;DHT22;19510;54.486;9.046;2022-10-15T10:28:56;14.30;99.90
16838;DHT22;19510;54.486;9.046;2022-10-15T10:31:31;14.30;99.90
16838;DHT22;19510;54.486;9.046;2022-10-15T10:34:00;14.30;99.90
16838;DHT22;19510;54.486;9.046;2022-10-15T10:36:29;14.40;99.90
16838;DHT22;19510;54.486;9.046;2022-10-15T10:42:00;14.50;99.90
16838;DHT22;19510;54.486;9.046;2022-10-15T10:44:40;14.50;99.90
16838;DHT22;19510;54.486;9.046;2022-10-15T10:47:23;14.60;99.90
16838;DHT22;19510;54.486;9.046;2022-10-15T10:49:56;14.60;99.90
16838;DHT22;19510;54.486;9.046;2022-10-15T10:52:29;14.60;99.90
16838;DHT22;19510;54.486;9.046;2022-10-15T10:55:17;14.60;99.90
16838;DHT22;19510;54.486;9.046;2022-10-15T10:58:03;14.70;99.90
16838;DHT22;19510;54.486;9.046;2022-10-15T11:00:40;14.70;99.90
16838;DHT22;19510;54.486;9.046;2022-10-15T11:05:39;14.80;99.90
16838;DHT22;19510;54.486;9.046;2022-10-15T11:11:03;14.90;99.90
16838;DHT22;19510;54.486;9.046;2022-10-15T11:22:03;15.30;99.90
16838;DHT22;19510;54.486;9.046;2022-10-15T11:40:31;15.60;99.90
16838;DHT22;19510;54.486;9.046;2022-10-15T11:46:37;15.80;99.90
16838;DHT22;19510;54.486;9.046;2022-10-15T11:55:43;15.90;99.90
16838;DHT22;19510;54.486;9.046;2022-10-15T11:58:53;16.00;99.90
16838;DHT22;19510;54.486;9.046;2022-10-15T12:01:58;16.00;99.90
16838;DHT22;19510;54.486;9.046;2022-10-15T12:07:49;16.00;99.90
16838;DHT22;19510;54.486;9.046;2022-10-15T12:13:01;15.90;99.90
16838;DHT22;19510;54.486;9.046;2022-10-15T12:15:44;15.90;99.90
16838;DHT22;19510;54.486;9.046;2022-10-15T12:18:22;15.90;99.90
16838;DHT22;19510;54.486;9.046;2022-10-15T12:20:51;15.90;99.90
16838;DHT22;19510;54.486;9.046;2022-10-15T12:23:40;15.90;99.90
16838;DHT22;19510;54.486;9.046;2022-10-15T12:26:30;15.90;99.90
16838;DHT22;19510;54.486;9.046;2022-10-15T12:29:02;16.10;99.90
16838;DHT22;19510;54.486;9.046;2022-10-15T12:31:48;16.40;99.90
16838;DHT22;19510;54.486;9.046;2022-10-15T12:34:27;16.30;99.90
16838;DHT22;19510;54.486;9.046;2022-10-15T12:37:15;16.40;99.90
16838;DHT22;19510;54.486;9.046;2022-10-15T12:39:45;16.50;99.90
16838;DHT22;19510;54.486;9.046;2022-10-15T12:42:26;16.50;99.90
16838;DHT22;19510;54.486;9.046;2022-10-15T12:44:54;16.50;99.90
16838;DHT22;19510;54.486;9.046;2022-10-15T12:50:33;16.50;99.90
16838;DHT22;19510;54.486;9.046;2022-10-15T12:58:45;16.50;99.90
16838;DHT22;19510;54.486;9.046;2022-10-15T13:03:52;16.40;99.90
16838;DHT22;19510;54.486;9.046;2022-10-15T13:06:25;16.50;99.90
16838;DHT22;19510;54.486;9.046;2022-10-15T13:14:30;16.50;99.90
16838;DHT22;19510;54.486;9.046;2022-10-15T13:17:30;16.70;99.90
16838;DHT22;19510;54.486;9.046;2022-10-15T13:20:06;16.70;99.90
16838;DHT22;19510;54.486;9.046;2022-10-15T13:22:36;16.70;99.90
16838;DHT22;19510;54.486;9.046;2022-10-15T13:25:14;16.70;99.90
16838;DHT22;19510;54.486;9.046;2022-10-15T13:27:39;16.70;99.90
16838;DHT22;19510;54.486;9.046;2022-10-15T13:30:14;16.70;99.90
16838;DHT22;19510;54.486;9.046;2022-10-15T13:32:49;16.70;99.90
16838;DHT22;19510;54.486;9.046;2022-10-15T13:37:46;16.70;99.90
16838;DHT22;19510;54.486;9.046;2022-10-15T13:40:24;16.70;99.90
16838;DHT22;19510;54.486;9.046;2022-10-15T13:43:20;16.70;99.90
16838;DHT22;19510;54.486;9.046;2022-10-15T13:45:48;16.70;99.90
16838;DHT22;19510;54.486;9.046;2022-10-15T13:48:22;16.70;99.90
16838;DHT22;19510;54.486;9.046;2022-10-15T13:51:02;16.70;99.90
16838;DHT22;19510;54.486;9.046;2022-10-15T13:53:36;16.70;99.90
16838;DHT22;19510;54.486;9.046;2022-10-15T13:56:27;16.70;99.90
16838;DHT22;19510;54.486;9.046;2022-10-15T13:58:58;16.70;99.90
16838;DHT22;19510;54.486;9.046;2022-10-15T14:01:25;16.60;99.90
16838;DHT22;19510;54.486;9.046;2022-10-15T14:03:53;16.60;99.90
16838;DHT22;19510;54.486;9.046;2022-10-15T14:09:27;16.50;99.90
16838;DHT22;19510;54.486;9.046;2022-10-15T14:11:48;16.50;99.90
16838;DHT22;19510;54.486;9.046;2022-10-15T14:17:02;16.50;99.90
16838;DHT22;19510;54.486;9.046;2022-10-15T14:19:29;16.50;99.90
16838;DHT22;19510;54.486;9.046;2022-10-15T14:21:58;16.50;99.90
16838;DHT22;19510;54.486;9.046;2022-10-15T14:24:31;16.50;99.90
16838;DHT22;19510;54.486;9.046;2022-10-15T14:27:11;16.50;99.90
16838;DHT22;19510;54.486;9.046;2022-10-15T14:29:40;16.50;99.90
16838;DHT22;19510;54.486;9.046;2022-10-15T14:32:26;16.40;99.90
16838;DHT22;19510;54.486;9.046;2022-10-15T14:34:54;16.40;99.90
16838;DHT22;19510;54.486;9.046;2022-10-15T14:40:27;16.40;99.90
16838;DHT22;19510;54.486;9.046;2022-10-15T14:43:16;16.40;99.90
16838;DHT22;19510;54.486;9.046;2022-10-15T14:45:56;16.40;99.90
16838;DHT22;19510;54.486;9.046;2022-10-15T14:48:35;16.40;99.90
16838;DHT22;19510;54.486;9.046;2022-10-15T14:51:14;16.40;99.90
16838;DHT22;19510;54.486;9.046;2022-10-15T14:53:44;16.40;99.90
16838;DHT22;19510;54.486;9.046;2022-10-15T14:56:19;16.40;99.90
16838;DHT22;19510;54.486;9.046;2022-10-15T14:58:53;16.40;99.90
16838;DHT22;19510;54.486;9.046;2022-10-15T15:01:21;16.30;99.90
16838;DHT22;19510;54.486;9.046;2022-10-15T15:03:51;16.30;99.90
16838;DHT22;19510;54.486;9.046;2022-10-15T15:06:21;16.30;99.90
16838;DHT22;19510;54.486;9.046;2022-10-15T15:08:49;16.20;99.90
16838;DHT22;19510;54.486;9.046;2022-10-15T15:11:19;16.20;99.90
16838;DHT22;19510;54.486;9.046;2022-10-15T15:13:46;16.10;99.90
16838;DHT22;19510;54.486;9.046;2022-10-15T15:16:13;16.10;99.90
16838;DHT22;19510;54.486;9.046;2022-10-15T15:18:39;16.10;99.90
16838;DHT22;19510;54.486;9.046;2022-10-15T15:21:12;16.10;99.90
16838;DHT22;19510;54.486;9.046;2022-10-15T15:23:38;16.00;99.90
16838;DHT22;19510;54.486;9.046;2022-10-15T15:26:05;16.00;99.90
16838;DHT22;19510;54.486;9.046;2022-10-15T15:28:30;16.00;99.90
16838;DHT22;19510;54.486;9.046;2022-10-15T15:31:11;15.90;99.90
16838;DHT22;19510;54.486;9.046;2022-10-15T15:34:08;16.00;99.90
16838;DHT22;19510;54.486;9.046;2022-10-15T15:36:34;15.90;99.90
16838;DHT22;19510;54.486;9.046;2022-10-15T15:39:03;15.90;99.90
16838;DHT22;19510;54.486;9.046;2022-10-15T15:41:35;15.80;99.90
16838;DHT22;19510;54.486;9.046;2022-10-15T15:44:21;15.70;99.90
16838;DHT22;19510;54.486;9.046;2022-10-15T15:46:47;15.80;99.90
16838;DHT22;19510;54.486;9.046;2022-10-15T15:49:15;15.70;99.90
16838;DHT22;19510;54.486;9.046;2022-10-15T15:51:41;15.70;99.90
16838;DHT22;19510;54.486;9.046;2022-10-15T15:54:07;15.70;99.90
16838;DHT22;19510;54.486;9.046;2022-10-15T15:56:34;15.70;99.90
16838;DHT22;19510;54.486;9.046;2022-10-15T15:59:00;15.60;99.90
16838;DHT22;19510;54.486;9.046;2022-10-15T16:01:29;15.60;99.90
16838;DHT22;19510;54.486;9.046;2022-10-15T16:03:55;15.50;99.90
16838;DHT22;19510;54.486;9.046;2022-10-15T16:06:21;15.60;99.90
16838;DHT22;19510;54.486;9.046;2022-10-15T16:08:50;15.60;99.90
16838;DHT22;19510;54.486;9.046;2022-10-15T16:11:16;15.50;99.90
16838;DHT22;19510;54.486;9.046;2022-10-15T16:13:45;15.60;99.90
16838;DHT22;19510;54.486;9.046;2022-10-15T16:16:11;15.50;99.90
16838;DHT22;19510;54.486;9.046;2022-10-15T16:18:37;15.50;99.90
16838;DHT22;19510;54.486;9.046;2022-10-15T16:21:03;15.40;99.90
16838;DHT22;19510;54.486;9.046;2022-10-15T16:23:29;15.40;99.90
16838;DHT22;19510;54.486;9.046;2022-10-15T16:25:55;15.50;99.90
16838;DHT22;19510;54.486;9.046;2022-10-15T16:28:22;15.40;99.90
16838;DHT22;19510;54.486;9.046;2022-10-15T16:30:48;15.40;99.90
16838;DHT22;19510;54.486;9.046;2022-10-15T16:33:14;15.40;99.90
16838;DHT22;19510;54.486;9.046;2022-10-15T16:35:41;15.30;99.90
16838;DHT22;19510;54.486;9.046;2022-10-15T16:38:07;15.30;99.90
16838;DHT22;19510;54.486;9.046;2022-10-15T16:40:33;15.30;99.90
16838;DHT22;19510;54.486;9.046;2022-10-15T16:43:26;15.30;99.90
16838;DHT22;19510;54.486;9.046;2022-10-15T16:46:01;15.20;99.90
16838;DHT22;19510;54.486;9.046;2022-10-15T16:48:28;15.30;99.90
16838;DHT22;19510;54.486;9.046;2022-10-15T16:53:37;15.20;99.90
16838;DHT22;19510;54.486;9.046;2022-10-15T17:12:59;15.10;99.90
16838;DHT22;19510;54.486;9.046;2022-10-15T17:15:25;15.10;99.90
16838;DHT22;19510;54.486;9.046;2022-10-15T17:17:51;15.00;99.90
16838;DHT22;19510;54.486;9.046;2022-10-15T17:20:18;15.00;99.90
16838;DHT22;19510;54.486;9.046;2022-10-15T17:22:44;15.00;99.90
16838;DHT22;19510;54.486;9.046;2022-10-15T17:25:09;15.00;99.90
16838;DHT22;19510;54.486;9.046;2022-10-15T17:27:35;15.00;99.90
16838;DHT22;19510;54.486;9.046;2022-10-15T17:30:01;15.00;99.90
16838;DHT22;19510;54.486;9.046;2022-10-15T17:32:26;14.90;99.90
16838;DHT22;19510;54.486;9.046;2022-10-15T17:34:52;14.90;99.90
16838;DHT22;19510;54.486;9.046;2022-10-15T17:37:18;15.00;99.90
16838;DHT22;19510;54.486;9.046;2022-10-15T17:39:43;14.90;99.90
16838;DHT22;19510;54.486;9.046;2022-10-15T17:42:09;14.90;99.90
16838;DHT22;19510;54.486;9.046;2022-10-15T17:44:36;14.90;99.90
16838;DHT22;19510;54.486;9.046;2022-10-15T17:47:02;15.00;99.90
16838;DHT22;19510;54.486;9.046;2022-10-15T17:49:27;14.90;99.90
16838;DHT22;19510;54.486;9.046;2022-10-15T17:51:53;14.90;99.90
16838;DHT22;19510;54.486;9.046;2022-10-15T17:54:19;14.90;99.90
16838;DHT22;19510;54.486;9.046;2022-10-15T17:56:44;14.90;99.90
16838;DHT22;19510;54.486;9.046;2022-10-15T17:59:11;14.90;99.90